Time;durP1;ratioP1;P1;durP2;ratioP2;P2;SDS_P1;SDS_P2;PMS_P1;PMS_P2;Temp;Humidity;BMP_temperature;BMP_pressure;BME280_temperature;BME280_humidity;BME280_pressure;Samples;Min_cycle;Max_cycle;Signal;HPM_P1;HPM_P2
2021/11/09 00:01:59;;;;;;;22.43;11.57;;;;;;;;;;4970996;28;20635;-73
2021/11/09 00:04:31;;;;;;;17.30;7.30;;;;;;;;;;4954993;28;20222;-73
2021/11/09 00:07:44;;;;;;;14.50;5.93;;;;;;;;;;4959038;28;20221;-73
2021/11/09 00:09:56;;;;;;;12.40;5.20;;;;;;;;;;4971342;28;20225;-73
2021/11/09 00:12:24;;;;;;;12.37;4.93;;;;;;;;;;4948095;28;20240;-73
2021/11/09 00:14:52;;;;;;;13.37;4.80;;;;;;;;;;4957787;28;20224;-74
2021/11/09 00:17:18;;;;;;;15.00;5.03;;;;;;;;;;4968827;28;20257;-74
2021/11/09 00:19:48;;;;;;;13.80;5.50;;;;;;;;;;4954801;28;20217;-73
2021/11/09 00:22:13;;;;;;;14.23;5.17;;;;;;;;;;4957883;28;20229;-73
2021/11/09 00:24:39;;;;;;;11.90;5.43;;;;;;;;;;4957825;28;20336;-72
2021/11/09 00:27:05;;;;;;;10.50;4.93;;;;;;;;;;4987579;28;20221;-73
2021/11/09 00:29:31;;;;;;;10.53;4.47;;;;;;;;;;4954484;28;20268;-74
2021/11/09 00:31:56;;;;;;;14.60;5.50;;;;;;;;;;4970451;28;20229;-74
2021/11/09 00:34:22;;;;;;;14.97;4.93;;;;;;;;;;4988206;28;20240;-75
2021/11/09 00:36:47;;;;;;;11.43;4.93;;;;;;;;;;4976935;28;20228;-72
2021/11/09 00:39:13;;;;;;;11.67;4.73;;;;;;;;;;4964107;28;20252;-73
2021/11/09 00:41:40;;;;;;;14.67;5.40;;;;;;;;;;4975946;28;20221;-73
2021/11/09 00:44:06;;;;;;;11.77;5.17;;;;;;;;;;4981258;28;20567;-73
2021/11/09 00:46:32;;;;;;;12.87;5.43;;;;;;;;;;4986092;28;20228;-73
2021/11/09 00:48:58;;;;;;;10.13;5.03;;;;;;;;;;4973951;28;20232;-73
2021/11/09 00:51:23;;;;;;;12.80;5.47;;;;;;;;;;4954762;28;20297;-73
2021/11/09 00:53:49;;;;;;;14.17;5.97;;;;;;;;;;4965435;28;20238;-73
2021/11/09 00:56:24;;;;;;;14.43;5.43;;;;;;;;;;4953922;28;20313;-73
2021/11/09 00:58:50;;;;;;;15.70;5.30;;;;;;;;;;4958889;28;20230;-73
2021/11/09 01:01:18;;;;;;;9.40;5.80;;;;;;;;;;4934554;28;20306;-73
2021/11/09 01:03:45;;;;;;;13.47;5.83;;;;;;;;;;4977029;28;20710;-73
2021/11/09 01:06:11;;;;;;;15.87;5.73;;;;;;;;;;4953496;28;20725;-74
2021/11/09 01:08:37;;;;;;;10.83;5.80;;;;;;;;;;4970149;28;20305;-73
2021/11/09 01:11:03;;;;;;;11.83;6.17;;;;;;;;;;4985502;28;20724;-73
2021/11/09 01:13:31;;;;;;;10.17;5.70;;;;;;;;;;4933391;28;20680;-73
2021/11/09 01:15:58;;;;;;;12.80;5.90;;;;;;;;;;4970349;28;20735;-73
2021/11/09 01:18:40;;;;;;;14.37;6.43;;;;;;;;;;4970275;28;20762;-73
2021/11/09 01:21:12;;;;;;;15.30;7.23;;;;;;;;;;4953877;28;20218;-73
2021/11/09 01:23:37;;;;;;;14.10;6.80;;;;;;;;;;4961310;28;20225;-74
2021/11/09 01:26:03;;;;;;;15.00;6.93;;;;;;;;;;4989324;28;20377;-73
2021/11/09 01:28:28;;;;;;;19.10;7.63;;;;;;;;;;4969557;28;20219;-73
2021/11/09 01:30:58;;;;;;;15.67;6.87;;;;;;;;;;4954430;28;20256;-74
2021/11/09 01:33:24;;;;;;;12.90;7.33;;;;;;;;;;4973293;28;20309;-73
2021/11/09 01:35:52;;;;;;;14.87;7.97;;;;;;;;;;4957734;28;20665;-73
2021/11/09 01:38:18;;;;;;;16.73;7.57;;;;;;;;;;4971457;28;20766;-73
2021/11/09 01:40:46;;;;;;;13.30;7.27;;;;;;;;;;4978483;28;20222;-73
2021/11/09 01:43:14;;;;;;;17.20;8.27;;;;;;;;;;4948857;28;20219;-74
2021/11/09 01:45:39;;;;;;;19.77;7.83;;;;;;;;;;4957321;28;20356;-73
2021/11/09 01:48:07;;;;;;;17.50;8.03;;;;;;;;;;4989515;28;20604;-73
2021/11/09 01:50:41;;;;;;;17.20;7.87;;;;;;;;;;4970189;28;20235;-73
2021/11/09 01:53:07;;;;;;;17.77;8.20;;;;;;;;;;4951052;28;20253;-73
2021/11/09 01:55:35;;;;;;;13.87;8.07;;;;;;;;;;4987935;28;20214;-73
2021/11/09 01:58:04;;;;;;;15.20;8.50;;;;;;;;;;4989481;28;20222;-73
2021/11/09 02:00:32;;;;;;;15.63;9.00;;;;;;;;;;4985716;28;20705;-73
2021/11/09 02:03:00;;;;;;;14.57;8.73;;;;;;;;;;4957296;28;20492;-73
2021/11/09 02:05:28;;;;;;;18.03;9.10;;;;;;;;;;4961937;28;20218;-72
2021/11/09 02:07:57;;;;;;;17.17;8.90;;;;;;;;;;4974722;28;20210;-73
2021/11/09 02:10:25;;;;;;;20.47;9.50;;;;;;;;;;4969405;28;20233;-73
2021/11/09 02:12:51;;;;;;;16.80;9.07;;;;;;;;;;4945120;28;20245;-73
2021/11/09 02:15:19;;;;;;;21.33;9.97;;;;;;;;;;4981288;28;20249;-72
2021/11/09 02:17:49;;;;;;;20.60;9.57;;;;;;;;;;4977588;28;20267;-72
2021/11/09 02:20:21;;;;;;;18.63;9.20;;;;;;;;;;4969154;28;20257;-72
2021/11/09 02:22:48;;;;;;;17.60;9.97;;;;;;;;;;5007394;28;20229;-73
2021/11/09 02:25:15;;;;;;;15.40;9.40;;;;;;;;;;4990506;28;20229;-73
2021/11/09 02:27:40;;;;;;;16.77;10.03;;;;;;;;;;5006001;28;20233;-73
2021/11/09 02:30:08;;;;;;;20.50;10.40;;;;;;;;;;4985175;28;20253;-72
2021/11/09 02:32:34;;;;;;;16.87;10.03;;;;;;;;;;4968775;28;20230;-74
2021/11/09 02:34:59;;;;;;;16.97;10.07;;;;;;;;;;4983516;28;20241;-73
2021/11/09 02:37:27;;;;;;;18.60;10.70;;;;;;;;;;4967511;28;20218;-74
2021/11/09 02:39:58;;;;;;;14.93;10.40;;;;;;;;;;4985574;28;20218;-73
2021/11/09 02:42:26;;;;;;;18.93;10.47;;;;;;;;;;4966552;28;20292;-73
2021/11/09 02:45:00;;;;;;;18.40;11.13;;;;;;;;;;4965152;28;20610;-74
2021/11/09 02:47:31;;;;;;;20.80;10.70;;;;;;;;;;4957788;28;20640;-74
2021/11/09 02:50:07;;;;;;;20.20;10.40;;;;;;;;;;4973664;28;20218;-74
2021/11/09 02:52:34;;;;;;;17.63;10.80;;;;;;;;;;4972363;28;20253;-73
2021/11/09 02:55:06;;;;;;;18.23;9.97;;;;;;;;;;4981655;28;20221;-73
2021/11/09 02:57:42;;;;;;;17.40;10.60;;;;;;;;;;4945287;28;20284;-73
2021/11/09 03:00:28;;;;;;;19.83;10.73;;;;;;;;;;4986922;28;20229;-74
2021/11/09 03:03:00;;;;;;;20.20;10.07;;;;;;;;;;4986122;28;20221;-73
2021/11/09 03:08:41;;;;;;;18.27;10.60;;;;;;;;;;4928839;28;20317;-72
2021/11/09 03:11:09;;;;;;;16.67;10.73;;;;;;;;;;4952257;28;20233;-73
2021/11/09 03:13:39;;;;;;;15.67;10.60;;;;;;;;;;4973519;28;20237;-73
2021/11/09 03:16:10;;;;;;;17.27;11.03;;;;;;;;;;4955461;28;20222;-73
2021/11/09 03:18:44;;;;;;;17.80;11.40;;;;;;;;;;4972158;28;20237;-73
2021/11/09 03:45:40;;;;;;;17.23;11.27;;;;;;;;;;4989343;28;20686;-72
2021/11/09 03:48:16;;;;;;;20.53;12.53;;;;;;;;;;4962642;28;20225;-75
2021/11/09 03:50:42;;;;;;;17.77;11.57;;;;;;;;;;4972433;28;20223;-73
2021/11/09 03:53:26;;;;;;;18.27;11.73;;;;;;;;;;4954762;28;20241;-72
2021/11/09 03:58:40;;;;;;;22.67;11.93;;;;;;;;;;4974277;28;20225;-72
2021/11/09 04:01:09;;;;;;;21.97;12.07;;;;;;;;;;4984319;28;20225;-72
2021/11/09 04:06:39;;;;;;;15.37;10.27;;;;;;;;;;4963484;28;20213;-73
2021/11/09 04:11:42;;;;;;;13.67;9.60;;;;;;;;;;4992440;28;20230;-73
2021/11/09 04:14:28;;;;;;;17.13;8.87;;;;;;;;;;4965652;28;20217;-72
2021/11/09 04:23:09;;;;;;;16.57;9.20;;;;;;;;;;4949158;28;20303;-73
2021/11/09 04:28:07;;;;;;;14.93;8.57;;;;;;;;;;4964347;28;20706;-74
2021/11/09 04:50:23;;;;;;;22.10;10.60;;;;;;;;;;4973019;28;20308;-73
2021/11/09 05:11:39;;;;;;;19.23;10.00;;;;;;;;;;4960500;28;20229;-73
2021/11/09 05:14:06;;;;;;;18.20;9.93;;;;;;;;;;4962288;28;20734;-72
2021/11/09 05:16:34;;;;;;;19.27;10.70;;;;;;;;;;4953615;28;20253;-72
2021/11/09 05:19:07;;;;;;;22.13;11.50;;;;;;;;;;4978120;28;20636;-72
2021/11/09 05:21:33;;;;;;;22.03;11.80;;;;;;;;;;4974738;28;20308;-74
2021/11/09 05:24:01;;;;;;;20.57;12.17;;;;;;;;;;4982492;28;20301;-73
2021/11/09 05:26:27;;;;;;;21.80;11.87;;;;;;;;;;4985095;28;20221;-73
2021/11/09 05:28:53;;;;;;;28.23;14.63;;;;;;;;;;4977350;28;20232;-73
2021/11/09 05:31:19;;;;;;;26.27;15.07;;;;;;;;;;4955248;28;20222;-74
2021/11/09 05:33:45;;;;;;;25.77;15.50;;;;;;;;;;4969790;28;20617;-73
2021/11/09 05:36:14;;;;;;;28.53;16.30;;;;;;;;;;4969222;28;20234;-75
2021/11/09 05:39:29;;;;;;;31.17;16.67;;;;;;;;;;4966184;28;20225;-73
2021/11/09 05:41:34;;;;;;;28.33;15.97;;;;;;;;;;4969182;28;20237;-74
2021/11/09 05:44:06;;;;;;;29.83;16.30;;;;;;;;;;4973800;28;20229;-74
2021/11/09 05:46:35;;;;;;;31.53;17.57;;;;;;;;;;4925318;29;20613;-74
2021/11/09 05:49:01;;;;;;;28.33;16.23;;;;;;;;;;4968692;28;20695;-74
2021/11/09 05:51:26;;;;;;;31.87;17.50;;;;;;;;;;4971915;28;20276;-73
2021/11/09 05:53:52;;;;;;;33.13;17.00;;;;;;;;;;4977325;28;20222;-74
2021/11/09 05:56:20;;;;;;;28.90;16.53;;;;;;;;;;4936890;28;20306;-73
2021/11/09 05:58:48;;;;;;;31.97;17.47;;;;;;;;;;4981246;28;20219;-73
2021/11/09 06:01:17;;;;;;;26.57;17.13;;;;;;;;;;4988577;28;20222;-73
2021/11/09 06:03:45;;;;;;;34.73;21.43;;;;;;;;;;4972452;28;20214;-73
2021/11/09 06:06:11;;;;;;;31.30;19.27;;;;;;;;;;4973106;28;20623;-72
2021/11/09 06:08:37;;;;;;;32.10;18.30;;;;;;;;;;4986000;28;20241;-73
2021/11/09 06:11:02;;;;;;;32.13;18.70;;;;;;;;;;4998094;28;20352;-72
2021/11/09 06:13:28;;;;;;;31.00;19.13;;;;;;;;;;4972816;28;20217;-73
2021/11/09 06:15:54;;;;;;;30.40;19.33;;;;;;;;;;4957277;28;20316;-72
2021/11/09 06:18:19;;;;;;;27.60;17.90;;;;;;;;;;4961323;28;20257;-73
2021/11/09 06:20:45;;;;;;;29.27;17.10;;;;;;;;;;4973039;28;20222;-73
2021/11/09 06:23:11;;;;;;;28.50;16.80;;;;;;;;;;4960137;28;20226;-73
2021/11/09 06:25:36;;;;;;;31.37;18.30;;;;;;;;;;4975971;28;20309;-73
2021/11/09 06:28:04;;;;;;;28.70;17.47;;;;;;;;;;4973712;28;20217;-73
2021/11/09 06:30:30;;;;;;;25.23;16.67;;;;;;;;;;4974052;28;20768;-74
2021/11/09 06:32:56;;;;;;;26.27;16.47;;;;;;;;;;4973884;28;20230;-73
2021/11/09 06:35:24;;;;;;;26.77;16.17;;;;;;;;;;4980486;28;20627;-73
2021/11/09 06:37:53;;;;;;;23.17;15.03;;;;;;;;;;4958865;28;20273;-74
2021/11/09 06:40:18;;;;;;;28.60;16.43;;;;;;;;;;4992489;28;20249;-73
2021/11/09 06:42:47;;;;;;;24.80;15.30;;;;;;;;;;4990861;28;20221;-72
2021/11/09 06:45:12;;;;;;;22.83;15.00;;;;;;;;;;4973132;28;20300;-73
2021/11/09 06:47:38;;;;;;;22.07;15.20;;;;;;;;;;4976583;28;20213;-74
2021/11/09 06:50:08;;;;;;;21.83;15.33;;;;;;;;;;4972102;28;20253;-73
2021/11/09 06:52:36;;;;;;;23.23;15.27;;;;;;;;;;4972876;28;20226;-73
2021/11/09 06:55:04;;;;;;;25.30;15.10;;;;;;;;;;4978697;28;20222;-73
2021/11/09 06:57:32;;;;;;;23.60;14.90;;;;;;;;;;4990613;28;20233;-73
2021/11/09 06:59:58;;;;;;;23.67;14.43;;;;;;;;;;4973885;28;20276;-74
2021/11/09 07:02:27;;;;;;;24.73;15.07;;;;;;;;;;4989551;28;20244;-74
2021/11/09 07:04:55;;;;;;;25.53;14.73;;;;;;;;;;4976797;28;20728;-73
2021/11/09 07:07:21;;;;;;;24.97;15.37;;;;;;;;;;4976479;28;20313;-73
2021/11/09 07:09:49;;;;;;;21.53;13.93;;;;;;;;;;4982348;28;20758;-72
2021/11/09 07:12:21;;;;;;;25.07;16.07;;;;;;;;;;4975293;28;20249;-73
2021/11/09 07:14:46;;;;;;;24.43;14.80;;;;;;;;;;4975109;28;20217;-73
2021/11/09 07:17:12;;;;;;;27.70;14.57;;;;;;;;;;4975745;28;20375;-74
2021/11/09 07:19:42;;;;;;;23.50;14.63;;;;;;;;;;4987606;28;20700;-72
2021/11/09 07:22:08;;;;;;;22.67;15.40;;;;;;;;;;4971972;28;20221;-73
2021/11/09 07:24:34;;;;;;;21.23;15.30;;;;;;;;;;4974975;28;20609;-73
2021/11/09 07:27:03;;;;;;;23.70;14.73;;;;;;;;;;4990994;28;20209;-72
2021/11/09 07:29:28;;;;;;;23.53;14.23;;;;;;;;;;4972635;28;20245;-73
2021/11/09 07:31:56;;;;;;;23.90;15.53;;;;;;;;;;4947179;28;20716;-72
2021/11/09 07:34:22;;;;;;;22.23;14.90;;;;;;;;;;4982117;28;20225;-73
2021/11/09 07:36:51;;;;;;;24.53;16.13;;;;;;;;;;4971874;28;20225;-73
2021/11/09 07:39:16;;;;;;;22.00;14.10;;;;;;;;;;4980393;28;20227;-74
2021/11/09 07:41:42;;;;;;;25.47;14.67;;;;;;;;;;4948838;28;20365;-73
2021/11/09 07:44:08;;;;;;;24.53;15.37;;;;;;;;;;4974951;28;20328;-74
2021/11/09 07:46:34;;;;;;;24.20;15.60;;;;;;;;;;4956873;28;20225;-74
2021/11/09 07:49:01;;;;;;;27.93;16.87;;;;;;;;;;4971204;28;20943;-72
2021/11/09 07:51:28;;;;;;;24.30;16.43;;;;;;;;;;4922415;28;20226;-72
2021/11/09 07:53:57;;;;;;;28.53;17.73;;;;;;;;;;4952161;28;20308;-72
2021/11/09 07:56:25;;;;;;;34.43;21.47;;;;;;;;;;4977599;28;20253;-72
2021/11/09 08:01:21;;;;;;;31.87;19.63;;;;;;;;;;4953112;28;20221;-72
2021/11/09 08:06:26;;;;;;;29.93;18.47;;;;;;;;;;4956226;28;20217;-73
2021/11/09 08:11:26;;;;;;;31.10;20.87;;;;;;;;;;4965641;28;20235;-72
2021/11/09 08:13:51;;;;;;;35.80;19.60;;;;;;;;;;4966915;28;20610;-72
2021/11/09 08:16:17;;;;;;;35.70;20.00;;;;;;;;;;4955483;28;20222;-71
2021/11/09 08:18:48;;;;;;;32.27;19.27;;;;;;;;;;4952818;28;20658;-72
2021/11/09 08:21:16;;;;;;;27.80;19.00;;;;;;;;;;4964757;28;20226;-73
2021/11/09 08:23:47;;;;;;;35.10;19.70;;;;;;;;;;4967930;28;20253;-72
2021/11/09 08:26:13;;;;;;;31.57;19.43;;;;;;;;;;4958022;28;20245;-73
2021/11/09 08:28:44;;;;;;;32.20;20.83;;;;;;;;;;4978570;28;20230;-73
2021/11/09 08:31:12;;;;;;;35.43;20.23;;;;;;;;;;4958197;28;20289;-72
2021/11/09 08:33:38;;;;;;;34.67;20.10;;;;;;;;;;4952084;29;20210;-72
2021/11/09 08:36:07;;;;;;;34.07;20.13;;;;;;;;;;4950498;28;20269;-72
2021/11/09 08:38:33;;;;;;;36.50;20.20;;;;;;;;;;4953537;28;20222;-73
2021/11/09 08:41:01;;;;;;;31.90;20.40;;;;;;;;;;4927324;28;20726;-73
2021/11/09 08:43:31;;;;;;;34.00;19.80;;;;;;;;;;4968270;28;20239;-74
2021/11/09 08:46:05;;;;;;;35.87;20.50;;;;;;;;;;4958895;28;20253;-73
2021/11/09 08:48:36;;;;;;;32.60;19.13;;;;;;;;;;4955811;28;20660;-72
2021/11/09 08:51:07;;;;;;;32.83;17.87;;;;;;;;;;4967834;28;20724;-73
2021/11/09 08:54:22;;;;;;;28.50;18.77;;;;;;;;;;4986056;28;20218;-73
2021/11/09 09:06:38;;;;;;;23.80;16.20;;;;;;;;;;4954659;28;20221;-73
2021/11/09 09:09:09;;;;;;;25.17;15.97;;;;;;;;;;4965107;28;20222;-72
2021/11/09 09:11:34;;;;;;;25.03;14.87;;;;;;;;;;4984977;28;20226;-73
2021/11/09 09:14:02;;;;;;;24.50;15.07;;;;;;;;;;4967470;28;20218;-73
2021/11/09 09:16:29;;;;;;;20.67;14.10;;;;;;;;;;4969663;28;20221;-74
2021/11/09 09:18:55;;;;;;;21.37;13.73;;;;;;;;;;4952019;28;20333;-74
2021/11/09 09:21:34;;;;;;;23.10;13.73;;;;;;;;;;4960263;28;20241;-73
2021/11/09 09:24:10;;;;;;;26.93;14.83;;;;;;;;;;4959986;28;20238;-74
2021/11/09 09:56:30;;;;;;;23.47;12.43;;;;;;;;;;4991763;28;20316;-73
2021/11/09 09:58:56;;;;;;;21.73;11.40;;;;;;;;;;4971957;29;20226;-72
2021/11/09 10:01:22;;;;;;;19.30;10.27;;;;;;;;;;4968017;28;20238;-72
2021/11/09 10:03:48;;;;;;;20.80;11.33;;;;;;;;;;4970961;28;20250;-73
2021/11/09 10:06:14;;;;;;;22.83;10.93;;;;;;;;;;4983462;28;20227;-73
2021/11/09 10:08:48;;;;;;;21.57;10.33;;;;;;;;;;4968522;28;20226;-73
2021/11/09 10:11:36;;;;;;;18.10;10.53;;;;;;;;;;4956234;28;20318;-73
2021/11/09 10:14:05;;;;;;;19.00;9.50;;;;;;;;;;4973060;28;20223;-73
2021/11/09 10:16:38;;;;;;;18.40;9.20;;;;;;;;;;4947180;28;20227;-72
2021/11/09 10:19:04;;;;;;;19.50;9.67;;;;;;;;;;4956534;28;20222;-73
2021/11/09 10:21:39;;;;;;;20.20;10.27;;;;;;;;;;4976827;28;20234;-73
2021/11/09 10:24:27;;;;;;;13.73;8.13;;;;;;;;;;4983792;28;20218;-74
2021/11/09 10:26:54;;;;;;;17.03;7.60;;;;;;;;;;4973797;28;20222;-72
2021/11/09 10:29:36;;;;;;;15.67;7.47;;;;;;;;;;4954437;28;20704;-73
2021/11/09 10:32:18;;;;;;;14.73;7.00;;;;;;;;;;4941401;28;21008;-73
2021/11/09 10:34:46;;;;;;;13.83;7.57;;;;;;;;;;4975267;28;20214;-74
2021/11/09 10:37:33;;;;;;;18.27;7.03;;;;;;;;;;4972297;28;20221;-74
2021/11/09 10:40:07;;;;;;;15.90;6.97;;;;;;;;;;4956519;28;20234;-72
2021/11/09 10:42:37;;;;;;;14.13;7.30;;;;;;;;;;4966041;28;20233;-74
2021/11/09 10:45:10;;;;;;;14.33;6.63;;;;;;;;;;4970591;28;20219;-73
2021/11/09 10:47:44;;;;;;;19.10;8.40;;;;;;;;;;4964150;28;20225;-73
2021/11/09 10:50:22;;;;;;;15.70;8.20;;;;;;;;;;4983288;28;20347;-73
2021/11/09 10:53:24;;;;;;;15.50;8.13;;;;;;;;;;4974954;28;20745;-72
2021/11/09 11:04:32;;;;;;;15.67;6.83;;;;;;;;;;4970297;28;20699;-74
2021/11/09 11:07:04;;;;;;;14.93;6.50;;;;;;;;;;4973628;28;20221;-73
2021/11/09 11:09:32;;;;;;;15.07;7.43;;;;;;;;;;4969378;28;20218;-73
2021/11/09 11:12:05;;;;;;;17.27;6.73;;;;;;;;;;4953886;28;20227;-73
2021/11/09 11:14:33;;;;;;;20.17;8.17;;;;;;;;;;4966863;28;20613;-74
2021/11/09 11:17:08;;;;;;;16.07;7.07;;;;;;;;;;4938216;28;20214;-73
2021/11/09 11:19:45;;;;;;;15.30;7.03;;;;;;;;;;4962281;28;20221;-72
2021/11/09 11:22:18;;;;;;;14.03;6.87;;;;;;;;;;4999396;28;20225;-73
2021/11/09 11:24:47;;;;;;;14.83;7.00;;;;;;;;;;4927787;28;20362;-72
2021/11/09 11:27:13;;;;;;;13.00;6.70;;;;;;;;;;4958553;28;20218;-73
2021/11/09 11:29:43;;;;;;;13.97;6.00;;;;;;;;;;4961724;28;20218;-73
2021/11/09 11:32:17;;;;;;;15.23;7.00;;;;;;;;;;4955784;28;20238;-74
2021/11/09 11:34:43;;;;;;;16.23;6.90;;;;;;;;;;4971901;28;20221;-73
2021/11/09 11:37:14;;;;;;;15.67;6.93;;;;;;;;;;4959189;28;20313;-74
2021/11/09 11:39:42;;;;;;;12.60;6.63;;;;;;;;;;4976587;28;20509;-73
2021/11/09 11:42:11;;;;;;;17.47;6.70;;;;;;;;;;4969174;28;20266;-73
2021/11/09 11:44:41;;;;;;;15.23;6.80;;;;;;;;;;4962801;28;20232;-73
2021/11/09 11:47:17;;;;;;;16.63;6.43;;;;;;;;;;4964547;28;20696;-75
2021/11/09 11:49:43;;;;;;;14.33;5.97;;;;;;;;;;4978461;28;20602;-75
2021/11/09 11:52:13;;;;;;;15.70;5.80;;;;;;;;;;4988959;28;20241;-74
2021/11/09 11:55:09;;;;;;;13.47;5.37;;;;;;;;;;4975774;28;20228;-74
2021/11/09 11:57:49;;;;;;;9.87;4.97;;;;;;;;;;4937528;28;20229;-74
2021/11/09 12:00:28;;;;;;;10.57;5.50;;;;;;;;;;4967831;28;20288;-74
2021/11/09 12:02:53;;;;;;;11.50;5.17;;;;;;;;;;4953088;28;20230;-74
2021/11/09 12:05:41;;;;;;;10.97;4.97;;;;;;;;;;4980883;28;20217;-72
2021/11/09 12:08:10;;;;;;;9.87;4.30;;;;;;;;;;4971946;28;20257;-73
2021/11/09 12:10:48;;;;;;;9.53;4.70;;;;;;;;;;4961771;28;20230;-72
2021/11/09 12:13:18;;;;;;;8.00;4.37;;;;;;;;;;4961311;28;20262;-73
2021/11/09 12:15:49;;;;;;;9.57;4.70;;;;;;;;;;4981699;28;20223;-73
2021/11/09 12:18:39;;;;;;;10.87;5.90;;;;;;;;;;4965521;28;20719;-75
2021/11/09 12:21:35;;;;;;;12.57;4.87;;;;;;;;;;4983831;28;20752;-73
2021/11/09 12:24:21;;;;;;;8.77;4.37;;;;;;;;;;4963620;28;20226;-73
2021/11/09 12:26:49;;;;;;;10.27;4.80;;;;;;;;;;4957606;28;20233;-73
2021/11/09 12:29:36;;;;;;;14.13;4.97;;;;;;;;;;4970504;28;20226;-74
2021/11/09 12:32:26;;;;;;;9.80;4.80;;;;;;;;;;4962790;28;20227;-74
2021/11/09 12:35:02;;;;;;;9.57;3.90;;;;;;;;;;4986658;28;20692;-74
2021/11/09 12:37:32;;;;;;;7.73;3.97;;;;;;;;;;4964581;28;20308;-73
2021/11/09 12:40:24;;;;;;;12.23;4.87;;;;;;;;;;4992529;28;20611;-74
2021/11/09 12:43:12;;;;;;;13.00;4.53;;;;;;;;;;4981958;28;20225;-74
2021/11/09 12:45:46;;;;;;;9.17;4.33;;;;;;;;;;4940502;28;20854;-73
2021/11/09 12:48:14;;;;;;;10.27;4.47;;;;;;;;;;4955490;28;20282;-73
2021/11/09 12:50:47;;;;;;;9.10;3.80;;;;;;;;;;4972437;28;20260;-74
2021/11/09 12:53:14;;;;;;;8.20;4.20;;;;;;;;;;4983826;28;20244;-74
2021/11/09 12:55:40;;;;;;;8.70;3.90;;;;;;;;;;4981733;28;20218;-73
2021/11/09 12:58:20;;;;;;;7.57;3.77;;;;;;;;;;4970782;28;20226;-73
2021/11/09 13:01:00;;;;;;;6.90;3.80;;;;;;;;;;4984298;28;20230;-73
2021/11/09 13:03:40;;;;;;;12.47;4.13;;;;;;;;;;4960361;28;20210;-73
2021/11/09 13:06:17;;;;;;;7.97;4.07;;;;;;;;;;4939190;28;20710;-74
2021/11/09 13:09:08;;;;;;;10.70;3.90;;;;;;;;;;4970329;28;20276;-74
2021/11/09 13:11:39;;;;;;;11.70;4.53;;;;;;;;;;4941348;28;20234;-74
2021/11/09 13:14:08;;;;;;;13.00;4.57;;;;;;;;;;4983813;28;20708;-73
2021/11/09 13:16:39;;;;;;;10.77;4.70;;;;;;;;;;4987253;28;20230;-74
2021/11/09 13:19:07;;;;;;;10.67;4.00;;;;;;;;;;4967916;28;20704;-74
2021/11/09 13:21:37;;;;;;;10.23;3.63;;;;;;;;;;4972352;28;20226;-74
2021/11/09 13:24:03;;;;;;;9.13;3.53;;;;;;;;;;4958349;28;20276;-74
2021/11/09 13:26:31;;;;;;;10.40;3.77;;;;;;;;;;4972194;28;20226;-74
2021/11/09 13:29:06;;;;;;;7.87;3.67;;;;;;;;;;4940988;28;20836;-74
2021/11/09 13:31:36;;;;;;;9.53;3.43;;;;;;;;;;4980681;28;20282;-74
2021/11/09 13:34:03;;;;;;;9.60;3.50;;;;;;;;;;4952753;28;20283;-73
2021/11/09 13:36:31;;;;;;;8.47;3.80;;;;;;;;;;4968662;28;20249;-74
2021/11/09 13:39:02;;;;;;;6.30;3.37;;;;;;;;;;4974700;28;20300;-73
2021/11/09 13:41:37;;;;;;;7.50;3.57;;;;;;;;;;4972933;28;20302;-74
2021/11/09 13:44:07;;;;;;;8.23;4.00;;;;;;;;;;4965366;28;20209;-72
2021/11/09 13:46:36;;;;;;;8.03;3.57;;;;;;;;;;4971783;28;20215;-73
2021/11/09 13:49:04;;;;;;;8.23;3.13;;;;;;;;;;4963738;28;20230;-73
2021/11/09 13:51:38;;;;;;;7.77;3.27;;;;;;;;;;4955262;28;20237;-73
2021/11/09 13:54:15;;;;;;;7.07;2.83;;;;;;;;;;4952649;28;20218;-72
2021/11/09 13:56:46;;;;;;;7.33;3.27;;;;;;;;;;4961296;28;20234;-75
2021/11/09 13:59:11;;;;;;;10.27;3.60;;;;;;;;;;4971024;28;20225;-74
2021/11/09 14:02:01;;;;;;;9.23;3.40;;;;;;;;;;4957267;28;20218;-76
2021/11/09 14:13:01;;;;;;;9.70;2.83;;;;;;;;;;4973833;28;20233;-73
2021/11/09 14:15:40;;;;;;;7.67;3.60;;;;;;;;;;4947786;28;20221;-73
2021/11/09 14:18:13;;;;;;;8.13;3.00;;;;;;;;;;4968560;28;20579;-74
2021/11/09 14:20:53;;;;;;;8.90;2.73;;;;;;;;;;4971575;28;20605;-76
2021/11/09 14:23:37;;;;;;;10.57;3.13;;;;;;;;;;4968570;28;20269;-74
2021/11/09 14:26:32;;;;;;;6.47;3.00;;;;;;;;;;4972944;28;20661;-75
2021/11/09 14:29:00;;;;;;;6.30;2.50;;;;;;;;;;4953552;28;20235;-78
2021/11/09 14:31:33;;;;;;;8.10;2.60;;;;;;;;;;4975099;28;20219;-75
2021/11/09 14:34:11;;;;;;;8.47;3.10;;;;;;;;;;4975260;28;20262;-75
2021/11/09 14:36:38;;;;;;;7.70;2.57;;;;;;;;;;4986551;28;20774;-73
2021/11/09 14:39:14;;;;;;;6.37;3.70;;;;;;;;;;4970102;28;20278;-75
2021/11/09 14:47:46;;;;;;;5.63;3.20;;;;;;;;;;4964580;28;20641;-74
2021/11/09 14:53:07;;;;;;;8.07;2.40;;;;;;;;;;4966605;28;20717;-74
2021/11/09 14:55:42;;;;;;;6.57;2.50;;;;;;;;;;4977038;28;20224;-74
2021/11/09 14:58:40;;;;;;;7.03;2.10;;;;;;;;;;4996194;28;20221;-72
2021/11/09 15:01:34;;;;;;;6.47;2.80;;;;;;;;;;4959704;28;20314;-73
2021/11/09 15:04:41;;;;;;;6.30;2.47;;;;;;;;;;4954531;28;20222;-76
2021/11/09 15:32:12;;;;;;;6.97;2.63;;;;;;;;;;4961003;28;20232;-72
2021/11/09 15:39:59;;;;;;;5.10;2.83;;;;;;;;;;4976840;28;20647;-73
2021/11/09 15:42:28;;;;;;;7.70;2.83;;;;;;;;;;4979012;28;20742;-73
2021/11/09 15:44:54;;;;;;;6.40;2.87;;;;;;;;;;4974279;28;20229;-73
2021/11/09 15:47:20;;;;;;;8.90;3.60;;;;;;;;;;4956199;28;20237;-74
2021/11/09 15:49:51;;;;;;;6.53;3.47;;;;;;;;;;4974050;28;20606;-72
2021/11/09 15:52:21;;;;;;;6.20;2.80;;;;;;;;;;4970484;28;20617;-72
2021/11/09 15:54:48;;;;;;;5.60;3.03;;;;;;;;;;4955376;28;20217;-73
2021/11/09 15:57:16;;;;;;;7.00;3.10;;;;;;;;;;4971464;28;20226;-72
2021/11/09 15:59:42;;;;;;;5.43;3.20;;;;;;;;;;4974696;28;20264;-72
2021/11/09 16:02:10;;;;;;;6.50;3.23;;;;;;;;;;4974479;28;20213;-71
2021/11/09 16:04:41;;;;;;;6.57;3.13;;;;;;;;;;4971533;28;20230;-72
2021/11/09 16:07:24;;;;;;;6.10;4.37;;;;;;;;;;4941102;28;20229;-71
2021/11/09 16:09:57;;;;;;;6.47;3.53;;;;;;;;;;4974235;28;20399;-72
2021/11/09 16:12:26;;;;;;;7.93;3.67;;;;;;;;;;4978558;28;20241;-71
2021/11/09 16:14:51;;;;;;;6.00;3.27;;;;;;;;;;4986171;28;20221;-72
2021/11/09 16:17:19;;;;;;;5.67;3.13;;;;;;;;;;4906170;28;20223;-72
2021/11/09 16:19:47;;;;;;;5.60;3.00;;;;;;;;;;4963476;28;20695;-72
2021/11/09 16:22:22;;;;;;;7.03;3.57;;;;;;;;;;4985048;28;20222;-71
2021/11/09 16:24:49;;;;;;;8.40;3.50;;;;;;;;;;4959169;28;20253;-73
2021/11/09 16:27:18;;;;;;;8.10;3.07;;;;;;;;;;4991148;28;20266;-74
2021/11/09 16:29:56;;;;;;;9.50;3.90;;;;;;;;;;4974729;28;20268;-73
2021/11/09 16:32:35;;;;;;;8.23;3.27;;;;;;;;;;4990048;28;20263;-72
2021/11/09 16:35:16;;;;;;;6.87;3.20;;;;;;;;;;4974617;28;20224;-71
2021/11/09 16:37:44;;;;;;;6.53;3.40;;;;;;;;;;4976643;28;20221;-72
2021/11/09 16:40:18;;;;;;;8.57;3.07;;;;;;;;;;4973070;28;20241;-73
2021/11/09 16:42:57;;;;;;;5.63;2.97;;;;;;;;;;4969729;28;20626;-72
2021/11/09 16:45:30;;;;;;;7.03;2.80;;;;;;;;;;4999441;28;20225;-72
2021/11/09 16:48:01;;;;;;;7.03;3.20;;;;;;;;;;4973669;28;20217;-72
2021/11/09 16:50:59;;;;;;;8.20;3.17;;;;;;;;;;4996428;28;20225;-73
2021/11/09 16:53:28;;;;;;;3.87;2.70;;;;;;;;;;4966724;28;20249;-73
2021/11/09 17:01:15;;;;;;;9.43;5.67;;;;;;;;;;4988775;28;20297;-72
2021/11/09 18:21:05;;;;;;;7.17;4.63;;;;;;;;;;4964505;28;20225;-74
2021/11/09 18:23:30;;;;;;;10.53;5.37;;;;;;;;;;4973799;28;20253;-73
2021/11/09 18:26:00;;;;;;;8.27;5.43;;;;;;;;;;4961046;28;20662;-76
2021/11/09 18:28:35;;;;;;;8.60;4.63;;;;;;;;;;4994145;28;20591;-73
2021/11/09 18:31:02;;;;;;;7.73;4.27;;;;;;;;;;4989034;28;20589;-73
2021/11/09 18:33:29;;;;;;;10.30;5.00;;;;;;;;;;4974675;28;20253;-72
2021/11/09 18:35:57;;;;;;;7.13;4.77;;;;;;;;;;4982345;28;20297;-73
2021/11/09 18:38:22;;;;;;;8.23;3.97;;;;;;;;;;4957401;28;20233;-73
2021/11/09 18:40:48;;;;;;;7.50;4.40;;;;;;;;;;4988208;28;20313;-73
2021/11/09 18:43:16;;;;;;;9.80;4.20;;;;;;;;;;4973756;28;20750;-73
2021/11/09 18:45:45;;;;;;;8.33;4.30;;;;;;;;;;4948925;28;20288;-74
2021/11/09 18:48:14;;;;;;;9.63;4.97;;;;;;;;;;4988652;28;20226;-73
2021/11/09 18:50:40;;;;;;;8.60;5.50;;;;;;;;;;4933120;28;20229;-74
2021/11/09 18:53:09;;;;;;;9.53;6.80;;;;;;;;;;4993078;28;20222;-73
2021/11/09 18:55:35;;;;;;;11.27;8.27;;;;;;;;;;4992522;28;20289;-73
2021/11/09 18:58:04;;;;;;;11.30;7.87;;;;;;;;;;4953627;29;20229;-73
2021/11/09 19:00:29;;;;;;;9.67;6.60;;;;;;;;;;4960017;28;20238;-72
2021/11/09 19:02:55;;;;;;;13.17;7.37;;;;;;;;;;4945506;28;20222;-72
2021/11/09 19:05:23;;;;;;;12.20;8.30;;;;;;;;;;4924262;28;20265;-73
2021/11/09 19:07:54;;;;;;;10.60;7.57;;;;;;;;;;4972774;28;20218;-73
2021/11/09 19:10:19;;;;;;;16.30;8.97;;;;;;;;;;4959065;28;20324;-74
2021/11/09 19:12:48;;;;;;;14.67;10.23;;;;;;;;;;4970810;28;20225;-73
2021/11/09 19:15:14;;;;;;;13.67;9.30;;;;;;;;;;4955497;28;20723;-72
2021/11/09 19:17:40;;;;;;;13.57;8.87;;;;;;;;;;5217415;23;20219;-74
2021/11/09 19:20:12;;;;;;;12.73;8.83;;;;;;;;;;4973308;28;20221;-73